createdAt,value
2023-02-03T00:00:20.178Z,98831.53
2023-02-03T00:02:46.736Z,98819.75
2023-02-03T00:05:13.486Z,98831.84
2023-02-03T00:07:40.142Z,98832.84
2023-02-03T00:10:07.084Z,98811.94
2023-02-03T00:12:33.896Z,98814.88
2023-02-03T00:15:00.403Z,98823.13
2023-02-03T00:17:26.894Z,98819.25
2023-02-03T00:19:53.382Z,98812.41
2023-02-03T00:22:19.849Z,98803.00
2023-02-03T00:24:46.333Z,98797.22
2023-02-03T00:27:14.398Z,98789.88
2023-02-03T00:29:41.128Z,98780.31
2023-02-03T00:32:07.690Z,98787.94
2023-02-03T00:34:34.291Z,98774.66
2023-02-03T00:37:00.789Z,98778.22
2023-02-03T00:39:27.287Z,98777.56
2023-02-03T00:41:53.775Z,98774.81
2023-02-03T00:44:20.262Z,98780.44
2023-02-03T00:46:46.796Z,98782.09
2023-02-03T00:49:13.289Z,98780.47
2023-02-03T00:51:39.769Z,98774.97
2023-02-03T00:54:06.284Z,98774.84
2023-02-03T00:56:32.768Z,98777.09
2023-02-03T00:58:59.244Z,98775.44
2023-02-03T01:01:27.113Z,98777.09
2023-02-03T01:03:55.919Z,98769.50
2023-02-03T01:06:22.586Z,98777.59
2023-02-03T01:08:49.137Z,98785.88
2023-02-03T01:11:20.629Z,98780.56
2023-02-03T01:13:47.111Z,98773.28
2023-02-03T01:16:15.389Z,98765.31
2023-02-03T01:18:41.953Z,98778.41
2023-02-03T01:21:10.156Z,98786.06
2023-02-03T01:23:36.780Z,98786.38
2023-02-03T01:26:11.055Z,98790.91
2023-02-03T01:28:37.842Z,98795.47
2023-02-03T01:31:12.015Z,98777.03
2023-02-03T01:33:40.877Z,98780.94
2023-02-03T01:36:08.669Z,98765.81
2023-02-03T01:38:35.679Z,98782.56
2023-02-03T01:41:02.153Z,98780.56
2023-02-03T01:43:30.869Z,98781.06
2023-02-03T01:45:58.571Z,98769.88
2023-02-03T01:48:25.059Z,98758.84
2023-02-03T01:50:52.276Z,98760.09
2023-02-03T01:53:18.743Z,98788.19
2023-02-03T01:55:47.234Z,98780.56
2023-02-03T01:58:25.683Z,98760.28
2023-02-03T02:00:52.241Z,98746.94
2023-02-03T02:03:24.557Z,98756.22
2023-02-03T02:05:54.865Z,98721.34
2023-02-03T02:08:22.727Z,98730.91
2023-02-03T02:10:49.186Z,98730.91
2023-02-03T02:13:16.092Z,98726.69
2023-02-03T02:16:03.871Z,98723.13
2023-02-03T02:18:58.363Z,98708.31
2023-02-03T02:21:43.047Z,98710.94
2023-02-03T02:24:47.237Z,98709.50
2023-02-03T02:27:37.948Z,98695.53
2023-02-03T02:30:15.501Z,98672.84
2023-02-03T02:32:44.780Z,98658.34
2023-02-03T02:35:24.233Z,98664.25
2023-02-03T02:38:16.809Z,98652.38
2023-02-03T02:40:54.716Z,98659.34
2023-02-03T02:43:24.993Z,98645.06
2023-02-03T02:45:52.522Z,98642.00
2023-02-03T02:48:46.976Z,98626.72
2023-02-03T02:51:14.286Z,98630.63
2023-02-03T02:53:46.480Z,98638.88
2023-02-03T02:56:15.323Z,98637.09
2023-02-03T02:58:42.146Z,98662.44
2023-02-03T03:01:09.409Z,98668.56
2023-02-03T03:03:35.895Z,98675.34
2023-02-03T03:06:06.366Z,98678.84
2023-02-03T03:08:42.535Z,98679.31
2023-02-03T03:11:09.011Z,98690.19
2023-02-03T03:13:39.303Z,98683.69
2023-02-03T03:16:07.526Z,98687.59
2023-02-03T03:18:36.546Z,98692.13
2023-02-03T03:21:06.318Z,98684.38
2023-02-03T03:23:39.317Z,98674.28
2023-02-03T03:26:14.854Z,98673.66
2023-02-03T03:28:52.572Z,98667.16
2023-02-03T03:31:19.209Z,98656.47
2023-02-03T03:33:45.966Z,98649.78
2023-02-03T03:36:25.257Z,98648.50
2023-02-03T03:39:04.424Z,98628.69
2023-02-03T03:41:54.691Z,98628.38
2023-02-03T03:44:21.228Z,98619.28
2023-02-03T03:46:59.646Z,98615.72
2023-02-03T03:49:26.770Z,98618.47
2023-02-03T03:51:59.042Z,98616.66
2023-02-03T03:54:25.555Z,98615.53
2023-02-03T03:57:10.659Z,98611.78
2023-02-03T03:59:38.677Z,98613.91
2023-02-03T04:02:05.884Z,98621.06
2023-02-03T04:04:33.550Z,98603.06
2023-02-03T04:07:00.576Z,98600.78
2023-02-03T04:09:27.090Z,98606.44
2023-02-03T04:12:02.463Z,98592.66
2023-02-03T04:14:30.421Z,98587.81
2023-02-03T04:16:57.730Z,98577.25
2023-02-03T04:19:24.217Z,98572.88
2023-02-03T04:21:50.951Z,98562.47
2023-02-03T04:24:17.402Z,98579.69
2023-02-03T04:26:43.881Z,98577.09
2023-02-03T04:29:10.498Z,98561.19
2023-02-03T04:31:38.561Z,98549.66
2023-02-03T04:34:05.591Z,98550.97
2023-02-03T04:36:32.072Z,98548.69
2023-02-03T04:38:58.803Z,98558.59
2023-02-03T04:41:25.291Z,98564.09
2023-02-03T04:43:51.820Z,98557.91
2023-02-03T04:46:19.000Z,98556.97
2023-02-03T04:48:45.486Z,98556.78
2023-02-03T04:51:11.989Z,98547.38
2023-02-03T04:53:38.478Z,98548.38
2023-02-03T04:56:05.332Z,98529.41
2023-02-03T04:58:31.796Z,98522.09
2023-02-03T05:00:58.297Z,98521.25
2023-02-03T05:03:26.280Z,98511.50
2023-02-03T05:05:53.009Z,98507.97
2023-02-03T05:08:19.924Z,98511.84
2023-02-03T05:10:46.495Z,98506.34
2023-02-03T05:13:12.962Z,98506.84
2023-02-03T05:15:39.439Z,98495.94
2023-02-03T05:18:05.917Z,98492.53
2023-02-03T05:20:32.692Z,98499.66
2023-02-03T05:22:59.179Z,98483.94
2023-02-03T05:25:25.806Z,98481.97
2023-02-03T05:27:52.325Z,98489.28
2023-02-03T05:30:19.299Z,98514.94
2023-02-03T05:32:45.793Z,98508.59
2023-02-03T05:35:12.312Z,98514.94
2023-02-03T05:37:38.787Z,98520.78
2023-02-03T05:40:24.530Z,98509.41
2023-02-03T05:42:51.489Z,98500.47
2023-02-03T05:45:18.058Z,98497.41
2023-02-03T05:47:44.518Z,98496.75
2023-02-03T05:50:11.010Z,98494.97
2023-02-03T05:52:37.829Z,98503.25
2023-02-03T05:55:04.551Z,98505.19
2023-02-03T05:57:32.379Z,98505.34
2023-02-03T05:59:58.970Z,98511.84
2023-02-03T06:02:25.492Z,98512.66
2023-02-03T06:04:52.066Z,98516.53
2023-02-03T06:07:18.819Z,98508.13
2023-02-03T06:09:45.339Z,98515.44
2023-02-03T06:12:11.813Z,98508.75
2023-02-03T06:14:38.321Z,98512.97
2023-02-03T06:17:04.835Z,98513.78
2023-02-03T06:19:31.312Z,98515.41
2023-02-03T06:21:57.869Z,98518.16
2023-02-03T06:24:24.345Z,98522.88
2023-02-03T06:26:50.812Z,98501.47
2023-02-03T06:29:17.282Z,98521.91
2023-02-03T06:31:43.865Z,98523.22
2023-02-03T06:34:10.420Z,98538.16
2023-02-03T06:36:36.917Z,98539.91
2023-02-03T06:39:03.384Z,98542.69
2023-02-03T06:41:30.609Z,98534.09
2023-02-03T06:43:57.215Z,98532.44
2023-02-03T06:46:28.088Z,98535.00
2023-02-03T06:48:54.574Z,98543.16
2023-02-03T06:51:21.088Z,98547.66
2023-02-03T06:53:47.548Z,98558.06
2023-02-03T06:56:14.036Z,98544.41
2023-02-03T06:58:40.788Z,98558.22
2023-02-03T07:01:07.310Z,98576.38
2023-02-03T07:03:33.889Z,98561.47
2023-02-03T07:06:00.662Z,98573.13
2023-02-03T07:08:27.110Z,98577.66
2023-02-03T07:10:54.677Z,98589.84
2023-02-03T07:13:21.145Z,98580.09
2023-02-03T07:15:47.673Z,98576.03
2023-02-03T07:18:18.041Z,98599.25
2023-02-03T07:20:47.917Z,98599.25
2023-02-03T07:23:14.435Z,98593.25
2023-02-03T07:25:40.924Z,98599.06
2023-02-03T07:28:07.417Z,98607.53
2023-02-03T07:30:33.922Z,98609.66
2023-02-03T07:33:00.396Z,98608.84
2023-02-03T07:35:27.232Z,98600.53
2023-02-03T07:37:53.810Z,98599.38
2023-02-03T07:40:20.450Z,98598.75
2023-02-03T07:42:47.750Z,98586.72
2023-02-03T07:45:16.466Z,98587.06
2023-02-03T07:47:43.235Z,98590.31
2023-02-03T07:50:10.570Z,98583.34
2023-02-03T07:52:37.332Z,98583.03
2023-02-03T07:55:04.135Z,98597.63
2023-02-03T07:57:30.598Z,98595.38
2023-02-03T07:59:57.058Z,98597.44
2023-02-03T08:02:23.583Z,98590.47
2023-02-03T08:04:50.084Z,98592.75
2023-02-03T08:07:16.613Z,98594.56
2023-02-03T08:09:43.082Z,98598.44
2023-02-03T08:12:09.648Z,98610.28
2023-02-03T08:14:36.111Z,98595.53
2023-02-03T08:17:02.590Z,98585.47
2023-02-03T08:19:29.182Z,98590.53
2023-02-03T08:21:55.716Z,98611.28
2023-02-03T08:24:22.214Z,98597.50
2023-02-03T08:26:48.736Z,98603.66
2023-02-03T08:29:15.224Z,98589.38
2023-02-03T08:31:42.540Z,98588.91
2023-02-03T08:34:09.087Z,98579.16
2023-02-03T08:36:39.228Z,98584.84
2023-02-03T08:39:06.493Z,98590.19
2023-02-03T08:41:33.417Z,98577.69
2023-02-03T08:44:00.280Z,98572.03
2023-02-03T08:46:26.789Z,98565.53
2023-02-03T08:48:56.284Z,98564.75
2023-02-03T08:51:22.764Z,98563.13
2023-02-03T08:53:49.235Z,98550.59
2023-02-03T08:56:15.702Z,98561.50
2023-02-03T08:58:42.254Z,98566.19
2023-02-03T09:01:13.773Z,98580.66
2023-02-03T09:03:40.422Z,98567.50
2023-02-03T09:06:07.251Z,98572.69
2023-02-03T09:08:33.727Z,98580.16
2023-02-03T09:11:00.215Z,98574.31
2023-02-03T09:13:26.967Z,98587.94
2023-02-03T09:15:53.448Z,98586.69
2023-02-03T09:18:19.895Z,98588.28
2023-02-03T09:20:46.387Z,98585.84
2023-02-03T09:23:12.954Z,98592.84
2023-02-03T09:25:39.432Z,98590.91
2023-02-03T09:28:05.977Z,98592.84
2023-02-03T09:30:32.871Z,98577.59
2023-02-03T09:32:59.522Z,98561.06
2023-02-03T09:35:26.985Z,98566.56
2023-02-03T09:37:53.527Z,98548.38
2023-02-03T09:40:26.919Z,98551.28
2023-02-03T09:43:15.183Z,98561.69
2023-02-03T09:45:41.723Z,98558.09
2023-02-03T09:48:22.893Z,98545.44
2023-02-03T09:50:49.422Z,98544.63
2023-02-03T09:53:27.290Z,98561.06
2023-02-03T09:55:53.794Z,98556.34
2023-02-03T09:58:22.855Z,98550.00
2023-02-03T10:01:02.824Z,98551.47
2023-02-03T10:03:37.007Z,98553.91
2023-02-03T10:06:16.607Z,98569.81
2023-02-03T10:09:26.984Z,98577.75
2023-02-03T10:12:02.564Z,98555.66
2023-02-03T10:14:35.597Z,98575.00
2023-02-03T10:17:16.464Z,98585.72
2023-02-03T10:19:56.412Z,98577.13
2023-02-03T10:22:28.333Z,98587.03
2023-02-03T10:25:20.734Z,98582.97
2023-02-03T10:27:47.281Z,98588.97
2023-02-03T10:30:27.975Z,98579.91
2023-02-03T10:33:00.603Z,98578.25
2023-02-03T10:35:33.430Z,98579.06
2023-02-03T10:37:59.988Z,98579.91
2023-02-03T10:40:27.047Z,98582.00
2023-02-03T10:43:12.377Z,98581.03
2023-02-03T10:45:38.849Z,98582.66
2023-02-03T10:48:07.235Z,98590.63
2023-02-03T10:50:33.696Z,98590.94
2023-02-03T10:53:18.394Z,98595.13
2023-02-03T10:55:45.784Z,98593.06
2023-02-03T10:58:36.650Z,98602.28
2023-02-03T11:01:13.792Z,98576.16
2023-02-03T11:04:05.725Z,98588.66
2023-02-03T11:06:32.991Z,98613.00
2023-02-03T11:08:59.586Z,98609.28
2023-02-03T11:11:31.554Z,98615.13
2023-02-03T11:14:04.080Z,98629.56
2023-02-03T11:16:30.746Z,98618.84
2023-02-03T11:19:03.712Z,98620.34
2023-02-03T11:21:33.894Z,98618.84
2023-02-03T11:24:00.199Z,98608.31
2023-02-03T11:26:29.601Z,98608.31
2023-02-03T11:28:57.401Z,98604.72
2023-02-03T11:31:28.705Z,98574.66
2023-02-03T11:34:15.615Z,98594.31
2023-02-03T11:36:42.096Z,98574.69
2023-02-03T11:39:17.585Z,98591.38
2023-02-03T11:41:44.164Z,98587.94
2023-02-03T11:44:18.595Z,98589.44
2023-02-03T11:46:46.824Z,98593.97
2023-02-03T11:49:31.561Z,98591.16
2023-02-03T11:52:09.439Z,98577.38
2023-02-03T11:54:45.244Z,98565.22
2023-02-03T11:57:30.687Z,98561.97
2023-02-03T12:00:16.896Z,98546.72
2023-02-03T12:03:01.693Z,98556.31
2023-02-03T12:05:52.953Z,98543.00
2023-02-03T12:08:25.692Z,98543.66
2023-02-03T12:10:55.072Z,98553.72
2023-02-03T12:13:43.145Z,98546.75
2023-02-03T12:16:13.769Z,98576.50
2023-02-03T12:19:03.530Z,98592.53
2023-02-03T12:21:35.515Z,98601.81
2023-02-03T12:24:11.160Z,98601.16
2023-02-03T12:27:05.947Z,98614.66
2023-02-03T12:29:36.976Z,98608.16
2023-02-03T12:32:17.347Z,98606.69
2023-02-03T12:34:53.954Z,98609.44
2023-02-03T12:37:27.991Z,98580.38
2023-02-03T12:39:58.033Z,98562.84
2023-02-03T12:42:39.748Z,98575.63
2023-02-03T12:45:09.160Z,98584.25
2023-02-03T12:47:48.602Z,98582.31
2023-02-03T12:50:21.888Z,98575.97
2023-02-03T12:52:53.487Z,98568.81
2023-02-03T12:55:50.175Z,98557.44
2023-02-03T12:58:21.074Z,98571.09
2023-02-03T13:00:54.528Z,98584.72
2023-02-03T13:03:30.515Z,98583.28
2023-02-03T13:06:14.516Z,98575.94
2023-02-03T13:09:22.545Z,98580.47
2023-02-03T13:11:54.013Z,98567.00
2023-02-03T13:14:45.213Z,98563.09
2023-02-03T13:17:20.512Z,98556.13
2023-02-03T13:19:49.470Z,98529.94
2023-02-03T13:22:16.409Z,98556.78
2023-02-03T13:24:45.738Z,98563.41
2023-02-03T13:27:26.022Z,98556.31
2023-02-03T13:29:59.545Z,98535.66
2023-02-03T13:32:39.314Z,98539.25
2023-02-03T13:35:08.771Z,98526.72
2023-02-03T13:38:03.509Z,98539.41
2023-02-03T13:41:04.084Z,98543.13
2023-02-03T13:43:39.471Z,98541.06
2023-02-03T13:46:09.338Z,98553.25
2023-02-03T13:48:36.568Z,98548.53
2023-02-03T13:51:14.397Z,98570.47
2023-02-03T13:53:41.357Z,98569.31
2023-02-03T13:56:09.266Z,98555.19
2023-02-03T13:58:39.175Z,98561.34
2023-02-03T14:01:25.487Z,98564.81
2023-02-03T14:03:52.085Z,98560.06
2023-02-03T14:06:40.462Z,98573.25
2023-02-03T14:09:23.478Z,98583.31
2023-02-03T14:11:51.039Z,98577.31
2023-02-03T14:14:17.357Z,98579.25
2023-02-03T14:16:47.586Z,98586.22
2023-02-03T14:19:20.072Z,98586.22
2023-02-03T14:21:50.438Z,98586.88
2023-02-03T14:24:17.161Z,98610.44
2023-02-03T14:26:44.989Z,98608.97
2023-02-03T14:29:30.160Z,98617.91
2023-02-03T14:32:01.974Z,98621.63
2023-02-03T14:34:36.051Z,98633.66
2023-02-03T14:37:25.167Z,98630.72
2023-02-03T14:40:16.321Z,98635.25
2023-02-03T14:43:13.839Z,98641.28
2023-02-03T14:46:04.733Z,98641.75
2023-02-03T14:49:00.514Z,98642.56
2023-02-03T14:51:51.900Z,98655.72
2023-02-03T14:54:43.241Z,98663.66
2023-02-03T14:57:26.568Z,98672.25
2023-02-03T15:00:06.412Z,98693.66
2023-02-03T15:02:33.442Z,98672.41
2023-02-03T15:05:12.083Z,98656.97
2023-02-03T15:07:46.425Z,98667.38
2023-02-03T15:10:13.786Z,98663.97
2023-02-03T15:12:45.058Z,98672.25
2023-02-03T15:15:24.398Z,98679.03
2023-02-03T15:17:52.336Z,98687.44
2023-02-03T15:20:38.641Z,98664.69
2023-02-03T15:23:20.934Z,98684.38
2023-02-03T15:25:53.777Z,98678.19
2023-02-03T15:28:20.998Z,98680.94
2023-02-03T15:30:49.926Z,98678.03
2023-02-03T15:33:17.885Z,98680.13
2023-02-03T15:35:44.812Z,98690.16
2023-02-03T15:38:16.664Z,98706.38
2023-02-03T15:40:50.452Z,98680.75
2023-02-03T15:43:25.957Z,98689.16
2023-02-03T15:46:03.892Z,98693.19
2023-02-03T15:48:40.006Z,98704.03
2023-02-03T15:51:11.231Z,98710.50
2023-02-03T15:53:50.123Z,98709.06
2023-02-03T15:56:37.794Z,98716.97
2023-02-03T15:59:05.183Z,98728.50
2023-02-03T16:01:31.973Z,98718.09
2023-02-03T16:03:58.498Z,98725.00
2023-02-03T16:06:36.940Z,98717.88
2023-02-03T16:09:03.784Z,98727.16
2023-02-03T16:11:37.378Z,98737.34
2023-02-03T16:14:06.658Z,98744.44
2023-02-03T16:16:55.360Z,98732.59
2023-02-03T16:19:29.525Z,98750.91
2023-02-03T16:21:56.741Z,98753.19
2023-02-03T16:24:32.172Z,98769.50
2023-02-03T16:27:28.010Z,98763.69
2023-02-03T16:30:14.134Z,98765.31
2023-02-03T16:32:59.228Z,98782.38
2023-02-03T16:35:44.372Z,98773.50
2023-02-03T16:38:34.227Z,98780.59
2023-02-03T16:41:19.492Z,98784.56
2023-02-03T16:44:04.185Z,98781.06
2023-02-03T16:46:49.209Z,98786.78
2023-02-03T16:49:34.256Z,98783.00
2023-02-03T16:52:01.587Z,98793.88
2023-02-03T16:54:28.221Z,98798.34
2023-02-03T16:56:58.433Z,98796.69
2023-02-03T16:59:25.224Z,98798.56
2023-02-03T17:01:51.764Z,98782.53
2023-02-03T17:04:18.273Z,98780.38
2023-02-03T17:06:44.881Z,98789.09
2023-02-03T17:09:11.349Z,98802.75
2023-02-03T17:11:37.835Z,98779.47
2023-02-03T17:14:04.488Z,98799.50
2023-02-03T17:16:32.812Z,98804.19
2023-02-03T17:18:59.343Z,98792.06
2023-02-03T17:21:27.948Z,98801.31
2023-02-03T17:23:54.482Z,98798.75
2023-02-03T17:26:20.953Z,98804.72
2023-02-03T17:28:47.423Z,98813.59
2023-02-03T17:31:15.773Z,98812.53
2023-02-03T17:33:42.585Z,98816.84
2023-02-03T17:36:14.834Z,98835.13
2023-02-03T17:55:07.980Z,98836.66
2023-02-03T17:57:37.237Z,98837.88
2023-02-03T18:00:04.664Z,98836.03
2023-02-03T18:02:31.282Z,98841.53
2023-02-03T18:04:57.801Z,98836.44
2023-02-03T18:07:24.250Z,98862.38
2023-02-03T18:09:50.715Z,98864.69
2023-02-03T18:12:17.225Z,98867.34
2023-02-03T18:14:43.708Z,98874.50
2023-02-03T18:17:10.169Z,98887.34
2023-02-03T18:19:36.704Z,98895.72
2023-02-03T18:22:03.211Z,98884.59
2023-02-03T18:24:30.579Z,98886.13
2023-02-03T18:26:57.067Z,98882.03
2023-02-03T18:29:24.352Z,98909.50
2023-02-03T18:31:50.853Z,98902.06
2023-02-03T18:34:17.498Z,98909.69
2023-02-03T18:36:44.023Z,98901.75
2023-02-03T18:39:12.427Z,98908.88
2023-02-03T18:41:39.520Z,98917.47
2023-02-03T18:44:06.004Z,98911.63
2023-02-03T18:46:32.645Z,98923.88
2023-02-03T18:48:59.227Z,98901.63
2023-02-03T18:51:25.937Z,98926.34
2023-02-03T18:53:52.580Z,98929.19
2023-02-03T18:56:20.694Z,98924.09
2023-02-03T18:58:47.268Z,98933.13
2023-02-03T19:01:27.681Z,98935.91
2023-02-03T19:03:55.244Z,98945.19
2023-02-03T19:06:22.136Z,98938.34
2023-02-03T19:08:48.600Z,98954.56
2023-02-03T19:11:17.177Z,98965.78
2023-02-03T19:13:43.674Z,98955.97
2023-02-03T19:16:12.314Z,98970.88
2023-02-03T19:18:38.874Z,98979.84
2023-02-03T19:21:05.478Z,98977.31
2023-02-03T19:23:31.962Z,98984.44
2023-02-03T19:25:58.464Z,98994.50
2023-02-03T19:28:30.888Z,98991.69
2023-02-03T19:31:09.449Z,98986.25
2023-02-03T19:33:36.662Z,98997.94
2023-02-03T19:36:04.332Z,98998.78
2023-02-03T19:38:30.863Z,98985.94
2023-02-03T19:40:57.437Z,98988.38
2023-02-03T19:43:24.700Z,98994.09
2023-02-03T19:45:51.649Z,98988.88
2023-02-03T19:48:18.980Z,98995.19
2023-02-03T19:50:48.605Z,98998.28
2023-02-03T19:53:15.728Z,99006.84
2023-02-03T19:55:45.933Z,99005.19
2023-02-03T19:58:13.921Z,99001.13
2023-02-03T20:00:40.522Z,99007.72
2023-02-03T20:03:07.002Z,99019.47
2023-02-03T20:05:34.415Z,99016.91
2023-02-03T20:08:00.908Z,99024.66
2023-02-03T20:10:27.760Z,99019.97
2023-02-03T20:12:54.517Z,99044.34
2023-02-03T20:15:21.602Z,99043.75
2023-02-03T20:17:48.094Z,99045.25
2023-02-03T20:20:16.294Z,99045.66
2023-02-03T20:22:42.753Z,99045.56
2023-02-03T20:25:09.543Z,99055.75
2023-02-03T20:27:36.101Z,99049.31
2023-02-03T20:30:04.026Z,99057.78
2023-02-03T20:32:30.515Z,99050.66
2023-02-03T20:34:57.929Z,99072.75
2023-02-03T20:37:24.433Z,99068.81
2023-02-03T20:39:51.004Z,99079.38
2023-02-03T20:42:17.693Z,99081.28
2023-02-03T20:44:44.560Z,99086.22
2023-02-03T20:47:12.200Z,99086.44
2023-02-03T20:49:38.682Z,99077.44
2023-02-03T20:52:12.751Z,99089.47
2023-02-03T20:54:39.452Z,99093.06
2023-02-03T20:57:10.199Z,99081.69
2023-02-03T20:59:36.726Z,99089.03
2023-02-03T21:02:10.508Z,99097.97
2023-02-03T21:04:55.649Z,99124.44
2023-02-03T21:07:22.947Z,99114.31
2023-02-03T21:09:49.537Z,99122.34
2023-02-03T21:12:16.213Z,99120.22
2023-02-03T21:14:43.632Z,99136.09
2023-02-03T21:17:20.217Z,99117.47
2023-02-03T21:19:46.784Z,99127.66
2023-02-03T21:22:33.475Z,99143.97
2023-02-03T21:25:00.808Z,99143.09
2023-02-03T21:27:28.946Z,99153.59
2023-02-03T21:29:59.582Z,99165.81
2023-02-03T21:32:39.860Z,99152.38
2023-02-03T21:35:23.750Z,99160.94
2023-02-03T21:37:52.618Z,99163.16
2023-02-03T21:40:24.298Z,99162.63
2023-02-03T21:42:51.706Z,99151.91
2023-02-03T21:45:18.031Z,99147.47
2023-02-03T21:47:44.810Z,99133.47
2023-02-03T21:50:33.324Z,99139.28
2023-02-03T21:53:08.856Z,99133.53
2023-02-03T21:55:36.265Z,99138.44
2023-02-03T21:58:24.009Z,99156.31
2023-02-03T22:00:54.193Z,99160.00
2023-02-03T22:03:27.836Z,99152.88
2023-02-03T22:05:59.178Z,99144.88
2023-02-03T22:08:25.633Z,99164.13
2023-02-03T22:10:52.154Z,99169.91
2023-02-03T22:13:20.035Z,99164.50
2023-02-03T22:15:46.865Z,99165.03
2023-02-03T22:18:13.319Z,99184.78
2023-02-03T22:20:39.778Z,99179.88
2023-02-03T22:23:06.252Z,99190.88
2023-02-03T22:25:32.791Z,99196.19
2023-02-03T22:27:59.336Z,99200.94
2023-02-03T22:30:25.797Z,99209.75
2023-02-03T22:32:52.254Z,99224.13
2023-02-03T22:35:19.047Z,99218.63
2023-02-03T22:37:45.549Z,99223.88
2023-02-03T22:40:12.221Z,99237.31
2023-02-03T22:42:38.955Z,99244.50
2023-02-03T22:45:06.384Z,99256.31
2023-02-03T22:47:32.869Z,99265.94
2023-02-03T22:49:59.332Z,99260.47
2023-02-03T22:52:25.860Z,99266.09
2023-02-03T22:54:52.326Z,99273.16
2023-02-03T22:57:18.801Z,99292.47
2023-02-03T22:59:45.282Z,99291.03
2023-02-03T23:02:11.737Z,99311.16
2023-02-03T23:04:38.269Z,99319.41
2023-02-03T23:07:04.836Z,99328.50
2023-02-03T23:09:31.317Z,99325.47
2023-02-03T23:11:57.792Z,99328.81
2023-02-03T23:14:24.260Z,99328.00
2023-02-03T23:16:50.806Z,99331.00
2023-02-03T23:19:17.276Z,99331.28
2023-02-03T23:21:43.745Z,99298.84
2023-02-03T23:24:10.210Z,99304.91
2023-02-03T23:26:36.688Z,99310.66
2023-02-03T23:29:03.159Z,99317.38
2023-02-03T23:31:29.876Z,99323.91
2023-02-03T23:34:15.223Z,99333.56
2023-02-03T23:36:41.709Z,99344.22
2023-02-03T23:39:08.260Z,99343.72
2023-02-03T23:41:34.744Z,99348.69
2023-02-03T23:44:01.226Z,99351.38
2023-02-03T23:46:27.718Z,99360.16
2023-02-03T23:48:54.234Z,99353.09
2023-02-03T23:51:20.693Z,99357.47
2023-02-03T23:53:47.429Z,99373.13
2023-02-03T23:56:13.895Z,99365.94
2023-02-03T23:58:40.358Z,99359.94
